sensor_id;sensor_type;location;lat;lon;timestamp;P1;durP1;ratioP1;P2;durP2;ratioP2
37657;SDS011;23500;53.268;8.308;2024-01-25T00:01:26;6.90;;;4.85;;
37657;SDS011;23500;53.268;8.308;2024-01-25T00:03:52;8.93;;;5.05;;
37657;SDS011;23500;53.268;8.308;2024-01-25T00:06:17;8.88;;;5.13;;
37657;SDS011;23500;53.268;8.308;2024-01-25T00:08:43;10.18;;;4.78;;
37657;SDS011;23500;53.268;8.308;2024-01-25T00:11:09;11.30;;;4.93;;
37657;SDS011;23500;53.268;8.308;2024-01-25T00:13:34;8.52;;;4.75;;
37657;SDS011;23500;53.268;8.308;2024-01-25T00:16:02;8.00;;;4.72;;
37657;SDS011;23500;53.268;8.308;2024-01-25T00:18:28;7.15;;;4.38;;
37657;SDS011;23500;53.268;8.308;2024-01-25T00:20:54;7.57;;;4.68;;
37657;SDS011;23500;53.268;8.308;2024-01-25T00:23:20;9.70;;;5.00;;
37657;SDS011;23500;53.268;8.308;2024-01-25T00:25:46;6.78;;;4.00;;
37657;SDS011;23500;53.268;8.308;2024-01-25T00:28:12;7.43;;;4.53;;
37657;SDS011;23500;53.268;8.308;2024-01-25T00:30:38;6.88;;;4.60;;
37657;SDS011;23500;53.268;8.308;2024-01-25T00:33:05;9.10;;;4.95;;
37657;SDS011;23500;53.268;8.308;2024-01-25T00:35:31;8.05;;;4.80;;
37657;SDS011;23500;53.268;8.308;2024-01-25T00:37:57;7.85;;;4.88;;
37657;SDS011;23500;53.268;8.308;2024-01-25T00:40:23;7.35;;;4.53;;
37657;SDS011;23500;53.268;8.308;2024-01-25T00:42:49;6.72;;;4.40;;
37657;SDS011;23500;53.268;8.308;2024-01-25T00:45:18;7.85;;;4.70;;
37657;SDS011;23500;53.268;8.308;2024-01-25T00:47:45;7.60;;;4.68;;
37657;SDS011;23500;53.268;8.308;2024-01-25T00:50:11;7.65;;;4.43;;
37657;SDS011;23500;53.268;8.308;2024-01-25T00:52:38;8.80;;;4.32;;
37657;SDS011;23500;53.268;8.308;2024-01-25T00:55:04;5.65;;;3.92;;
37657;SDS011;23500;53.268;8.308;2024-01-25T00:57:31;7.05;;;4.15;;
37657;SDS011;23500;53.268;8.308;2024-01-25T00:59:58;6.78;;;4.10;;
37657;SDS011;23500;53.268;8.308;2024-01-25T01:02:25;6.30;;;3.80;;
37657;SDS011;23500;53.268;8.308;2024-01-25T01:04:55;6.55;;;4.35;;
37657;SDS011;23500;53.268;8.308;2024-01-25T01:07:24;7.40;;;4.10;;
37657;SDS011;23500;53.268;8.308;2024-01-25T01:09:50;7.38;;;4.28;;
37657;SDS011;23500;53.268;8.308;2024-01-25T01:12:15;5.78;;;4.30;;
37657;SDS011;23500;53.268;8.308;2024-01-25T01:14:41;7.13;;;4.07;;
37657;SDS011;23500;53.268;8.308;2024-01-25T01:17:07;5.53;;;3.92;;
37657;SDS011;23500;53.268;8.308;2024-01-25T01:19:33;7.22;;;4.43;;
37657;SDS011;23500;53.268;8.308;2024-01-25T01:21:59;7.38;;;4.32;;
37657;SDS011;23500;53.268;8.308;2024-01-25T01:24:26;6.68;;;4.20;;
37657;SDS011;23500;53.268;8.308;2024-01-25T01:26:51;8.38;;;4.18;;
37657;SDS011;23500;53.268;8.308;2024-01-25T01:29:17;7.50;;;3.95;;
37657;SDS011;23500;53.268;8.308;2024-01-25T01:31:43;5.43;;;3.80;;
37657;SDS011;23500;53.268;8.308;2024-01-25T01:34:09;5.82;;;3.60;;
37657;SDS011;23500;53.268;8.308;2024-01-25T01:36:35;7.88;;;4.05;;
37657;SDS011;23500;53.268;8.308;2024-01-25T01:39:00;6.68;;;3.97;;
37657;SDS011;23500;53.268;8.308;2024-01-25T01:41:26;6.03;;;3.75;;
37657;SDS011;23500;53.268;8.308;2024-01-25T01:43:52;5.43;;;3.63;;
37657;SDS011;23500;53.268;8.308;2024-01-25T01:49:03;6.38;;;3.53;;
37657;SDS011;23500;53.268;8.308;2024-01-25T01:51:29;6.30;;;3.80;;
37657;SDS011;23500;53.268;8.308;2024-01-25T01:53:56;5.10;;;3.35;;
37657;SDS011;23500;53.268;8.308;2024-01-25T01:56:24;6.68;;;3.88;;
37657;SDS011;23500;53.268;8.308;2024-01-25T01:58:51;5.05;;;2.92;;
37657;SDS011;23500;53.268;8.308;2024-01-25T02:01:18;5.40;;;3.42;;
37657;SDS011;23500;53.268;8.308;2024-01-25T02:03:45;8.15;;;4.20;;
37657;SDS011;23500;53.268;8.308;2024-01-25T02:06:11;6.07;;;3.55;;
37657;SDS011;23500;53.268;8.308;2024-01-25T02:08:37;5.60;;;3.80;;
37657;SDS011;23500;53.268;8.308;2024-01-25T02:11:03;5.32;;;3.47;;
37657;SDS011;23500;53.268;8.308;2024-01-25T02:13:29;5.05;;;3.28;;
37657;SDS011;23500;53.268;8.308;2024-01-25T02:15:55;5.13;;;3.45;;
37657;SDS011;23500;53.268;8.308;2024-01-25T02:18:21;6.68;;;3.50;;
37657;SDS011;23500;53.268;8.308;2024-01-25T02:20:47;5.25;;;3.08;;
37657;SDS011;23500;53.268;8.308;2024-01-25T02:23:13;5.30;;;3.58;;
37657;SDS011;23500;53.268;8.308;2024-01-25T02:25:39;6.28;;;3.35;;
37657;SDS011;23500;53.268;8.308;2024-01-25T02:28:05;5.45;;;3.20;;
37657;SDS011;23500;53.268;8.308;2024-01-25T02:30:31;6.93;;;3.20;;
37657;SDS011;23500;53.268;8.308;2024-01-25T02:32:56;6.25;;;3.60;;
37657;SDS011;23500;53.268;8.308;2024-01-25T02:35:22;7.05;;;3.50;;
37657;SDS011;23500;53.268;8.308;2024-01-25T02:37:47;5.03;;;3.30;;
37657;SDS011;23500;53.268;8.308;2024-01-25T02:40:15;5.60;;;3.30;;
37657;SDS011;23500;53.268;8.308;2024-01-25T02:42:41;4.05;;;2.90;;
37657;SDS011;23500;53.268;8.308;2024-01-25T02:45:07;4.88;;;3.30;;
37657;SDS011;23500;53.268;8.308;2024-01-25T02:47:33;5.90;;;3.33;;
37657;SDS011;23500;53.268;8.308;2024-01-25T02:49:59;4.88;;;3.05;;
37657;SDS011;23500;53.268;8.308;2024-01-25T02:52:24;5.20;;;3.10;;
37657;SDS011;23500;53.268;8.308;2024-01-25T02:54:50;5.07;;;2.90;;
37657;SDS011;23500;53.268;8.308;2024-01-25T02:57:16;6.15;;;3.25;;
37657;SDS011;23500;53.268;8.308;2024-01-25T02:59:42;5.22;;;3.03;;
37657;SDS011;23500;53.268;8.308;2024-01-25T03:02:08;5.80;;;3.10;;
37657;SDS011;23500;53.268;8.308;2024-01-25T03:04:33;4.85;;;2.92;;
37657;SDS011;23500;53.268;8.308;2024-01-25T03:06:59;5.60;;;2.80;;
37657;SDS011;23500;53.268;8.308;2024-01-25T03:09:25;6.30;;;3.50;;
37657;SDS011;23500;53.268;8.308;2024-01-25T03:11:50;5.60;;;2.60;;
37657;SDS011;23500;53.268;8.308;2024-01-25T03:14:16;6.50;;;3.25;;
37657;SDS011;23500;53.268;8.308;2024-01-25T03:16:42;5.75;;;3.20;;
37657;SDS011;23500;53.268;8.308;2024-01-25T03:19:09;4.70;;;2.97;;
37657;SDS011;23500;53.268;8.308;2024-01-25T03:21:36;4.65;;;2.85;;
37657;SDS011;23500;53.268;8.308;2024-01-25T03:24:02;4.30;;;2.75;;
37657;SDS011;23500;53.268;8.308;2024-01-25T03:26:28;4.25;;;2.83;;
37657;SDS011;23500;53.268;8.308;2024-01-25T03:28:53;5.15;;;2.80;;
37657;SDS011;23500;53.268;8.308;2024-01-25T03:31:19;4.70;;;3.00;;
37657;SDS011;23500;53.268;8.308;2024-01-25T03:33:45;4.10;;;2.70;;
37657;SDS011;23500;53.268;8.308;2024-01-25T03:36:13;4.65;;;2.85;;
37657;SDS011;23500;53.268;8.308;2024-01-25T03:38:40;4.80;;;3.28;;
37657;SDS011;23500;53.268;8.308;2024-01-25T03:41:06;5.53;;;2.92;;
37657;SDS011;23500;53.268;8.308;2024-01-25T03:43:32;4.85;;;2.78;;
37657;SDS011;23500;53.268;8.308;2024-01-25T03:45:58;4.43;;;2.40;;
37657;SDS011;23500;53.268;8.308;2024-01-25T03:48:23;5.60;;;3.10;;
37657;SDS011;23500;53.268;8.308;2024-01-25T03:50:49;4.80;;;2.75;;
37657;SDS011;23500;53.268;8.308;2024-01-25T03:53:15;4.38;;;2.63;;
37657;SDS011;23500;53.268;8.308;2024-01-25T03:55:40;2.80;;;2.20;;
37657;SDS011;23500;53.268;8.308;2024-01-25T03:58:06;4.95;;;2.53;;
37657;SDS011;23500;53.268;8.308;2024-01-25T04:00:33;4.45;;;2.20;;
37657;SDS011;23500;53.268;8.308;2024-01-25T04:02:58;4.93;;;2.67;;
37657;SDS011;23500;53.268;8.308;2024-01-25T04:05:25;4.25;;;2.60;;
37657;SDS011;23500;53.268;8.308;2024-01-25T04:07:51;5.22;;;3.10;;
37657;SDS011;23500;53.268;8.308;2024-01-25T04:10:17;4.20;;;2.70;;
37657;SDS011;23500;53.268;8.308;2024-01-25T04:12:43;3.95;;;2.50;;
37657;SDS011;23500;53.268;8.308;2024-01-25T04:15:08;5.55;;;2.67;;
37657;SDS011;23500;53.268;8.308;2024-01-25T04:17:34;3.67;;;2.30;;
37657;SDS011;23500;53.268;8.308;2024-01-25T04:20:00;4.57;;;2.47;;
37657;SDS011;23500;53.268;8.308;2024-01-25T04:22:26;4.28;;;2.80;;
37657;SDS011;23500;53.268;8.308;2024-01-25T04:24:52;4.03;;;2.40;;
37657;SDS011;23500;53.268;8.308;2024-01-25T04:27:17;4.40;;;2.65;;
37657;SDS011;23500;53.268;8.308;2024-01-25T04:29:43;4.15;;;2.38;;
37657;SDS011;23500;53.268;8.308;2024-01-25T04:32:09;4.75;;;2.42;;
37657;SDS011;23500;53.268;8.308;2024-01-25T04:34:35;4.22;;;2.40;;
37657;SDS011;23500;53.268;8.308;2024-01-25T04:37:01;5.72;;;2.65;;
37657;SDS011;23500;53.268;8.308;2024-01-25T04:39:27;4.32;;;2.40;;
37657;SDS011;23500;53.268;8.308;2024-01-25T04:41:53;3.45;;;2.40;;
37657;SDS011;23500;53.268;8.308;2024-01-25T04:44:18;4.15;;;2.30;;
37657;SDS011;23500;53.268;8.308;2024-01-25T04:46:44;3.33;;;2.20;;
37657;SDS011;23500;53.268;8.308;2024-01-25T04:49:10;3.70;;;2.50;;
37657;SDS011;23500;53.268;8.308;2024-01-25T04:51:36;3.55;;;2.65;;
37657;SDS011;23500;53.268;8.308;2024-01-25T04:54:02;4.00;;;2.42;;
37657;SDS011;23500;53.268;8.308;2024-01-25T04:56:28;3.08;;;2.22;;
37657;SDS011;23500;53.268;8.308;2024-01-25T04:58:54;3.92;;;2.35;;
37657;SDS011;23500;53.268;8.308;2024-01-25T05:01:19;4.13;;;2.30;;
37657;SDS011;23500;53.268;8.308;2024-01-25T05:03:45;3.95;;;2.50;;
37657;SDS011;23500;53.268;8.308;2024-01-25T05:06:11;4.32;;;2.22;;
37657;SDS011;23500;53.268;8.308;2024-01-25T05:08:37;3.95;;;2.25;;
37657;SDS011;23500;53.268;8.308;2024-01-25T05:11:03;3.30;;;1.90;;
37657;SDS011;23500;53.268;8.308;2024-01-25T05:13:29;4.40;;;1.80;;
37657;SDS011;23500;53.268;8.308;2024-01-25T05:15:55;4.57;;;2.60;;
37657;SDS011;23500;53.268;8.308;2024-01-25T05:18:21;3.10;;;1.95;;
37657;SDS011;23500;53.268;8.308;2024-01-25T05:20:46;3.20;;;2.10;;
37657;SDS011;23500;53.268;8.308;2024-01-25T05:23:12;3.95;;;2.08;;
37657;SDS011;23500;53.268;8.308;2024-01-25T05:25:38;3.72;;;2.08;;
37657;SDS011;23500;53.268;8.308;2024-01-25T05:28:03;3.15;;;1.98;;
37657;SDS011;23500;53.268;8.308;2024-01-25T05:30:29;2.63;;;1.83;;
37657;SDS011;23500;53.268;8.308;2024-01-25T05:32:55;3.92;;;2.20;;
37657;SDS011;23500;53.268;8.308;2024-01-25T05:35:21;2.67;;;1.92;;
37657;SDS011;23500;53.268;8.308;2024-01-25T05:37:46;3.47;;;2.03;;
37657;SDS011;23500;53.268;8.308;2024-01-25T05:40:12;2.95;;;1.98;;
37657;SDS011;23500;53.268;8.308;2024-01-25T05:42:38;2.95;;;1.80;;
37657;SDS011;23500;53.268;8.308;2024-01-25T05:45:05;5.28;;;2.20;;
37657;SDS011;23500;53.268;8.308;2024-01-25T05:47:31;2.95;;;1.92;;
37657;SDS011;23500;53.268;8.308;2024-01-25T05:49:57;2.90;;;2.08;;
37657;SDS011;23500;53.268;8.308;2024-01-25T05:52:23;3.03;;;1.75;;
37657;SDS011;23500;53.268;8.308;2024-01-25T05:54:52;2.53;;;1.80;;
37657;SDS011;23500;53.268;8.308;2024-01-25T05:57:18;2.80;;;1.90;;
37657;SDS011;23500;53.268;8.308;2024-01-25T05:59:44;3.72;;;2.00;;
37657;SDS011;23500;53.268;8.308;2024-01-25T06:02:10;3.72;;;1.98;;
37657;SDS011;23500;53.268;8.308;2024-01-25T06:04:35;3.08;;;1.92;;
37657;SDS011;23500;53.268;8.308;2024-01-25T06:07:02;3.83;;;2.00;;
37657;SDS011;23500;53.268;8.308;2024-01-25T06:09:28;3.38;;;1.90;;
37657;SDS011;23500;53.268;8.308;2024-01-25T06:11:54;3.78;;;1.98;;
37657;SDS011;23500;53.268;8.308;2024-01-25T06:14:20;3.92;;;2.35;;
37657;SDS011;23500;53.268;8.308;2024-01-25T06:16:45;3.35;;;1.90;;
37657;SDS011;23500;53.268;8.308;2024-01-25T06:19:11;4.00;;;2.10;;
37657;SDS011;23500;53.268;8.308;2024-01-25T06:21:37;3.55;;;1.95;;
37657;SDS011;23500;53.268;8.308;2024-01-25T06:24:03;4.28;;;2.00;;
37657;SDS011;23500;53.268;8.308;2024-01-25T06:26:30;3.33;;;2.25;;
37657;SDS011;23500;53.268;8.308;2024-01-25T06:28:56;3.47;;;1.90;;
37657;SDS011;23500;53.268;8.308;2024-01-25T06:31:22;3.75;;;2.10;;
37657;SDS011;23500;53.268;8.308;2024-01-25T06:33:49;3.53;;;2.03;;
37657;SDS011;23500;53.268;8.308;2024-01-25T06:36:24;2.92;;;1.77;;
37657;SDS011;23500;53.268;8.308;2024-01-25T06:38:50;2.97;;;1.70;;
37657;SDS011;23500;53.268;8.308;2024-01-25T06:41:15;4.10;;;2.10;;
37657;SDS011;23500;53.268;8.308;2024-01-25T06:43:42;6.13;;;2.20;;
37657;SDS011;23500;53.268;8.308;2024-01-25T06:46:07;6.78;;;2.45;;
37657;SDS011;23500;53.268;8.308;2024-01-25T06:48:33;5.28;;;2.55;;
37657;SDS011;23500;53.268;8.308;2024-01-25T06:50:59;8.15;;;2.78;;
37657;SDS011;23500;53.268;8.308;2024-01-25T06:53:28;7.47;;;2.50;;
37657;SDS011;23500;53.268;8.308;2024-01-25T06:55:53;5.60;;;2.50;;
37657;SDS011;23500;53.268;8.308;2024-01-25T06:58:19;6.70;;;2.80;;
37657;SDS011;23500;53.268;8.308;2024-01-25T07:00:45;7.80;;;2.58;;
37657;SDS011;23500;53.268;8.308;2024-01-25T07:03:12;10.27;;;3.05;;
37657;SDS011;23500;53.268;8.308;2024-01-25T07:05:38;7.35;;;2.83;;
37657;SDS011;23500;53.268;8.308;2024-01-25T07:08:03;8.63;;;3.00;;
37657;SDS011;23500;53.268;8.308;2024-01-25T07:10:30;8.68;;;3.20;;
37657;SDS011;23500;53.268;8.308;2024-01-25T07:12:56;10.20;;;3.13;;
37657;SDS011;23500;53.268;8.308;2024-01-25T07:15:22;15.15;;;3.53;;
37657;SDS011;23500;53.268;8.308;2024-01-25T07:17:48;13.75;;;3.85;;
37657;SDS011;23500;53.268;8.308;2024-01-25T07:20:13;10.27;;;3.83;;
37657;SDS011;23500;53.268;8.308;2024-01-25T07:22:40;10.07;;;3.78;;
37657;SDS011;23500;53.268;8.308;2024-01-25T07:25:06;11.13;;;3.70;;
37657;SDS011;23500;53.268;8.308;2024-01-25T07:27:32;11.13;;;4.05;;
37657;SDS011;23500;53.268;8.308;2024-01-25T07:29:57;12.40;;;3.95;;
37657;SDS011;23500;53.268;8.308;2024-01-25T07:32:23;13.05;;;4.28;;
37657;SDS011;23500;53.268;8.308;2024-01-25T07:34:49;13.40;;;3.92;;
37657;SDS011;23500;53.268;8.308;2024-01-25T07:37:15;15.00;;;4.45;;
37657;SDS011;23500;53.268;8.308;2024-01-25T07:39:41;12.98;;;4.13;;
37657;SDS011;23500;53.268;8.308;2024-01-25T07:42:07;11.90;;;3.85;;
37657;SDS011;23500;53.268;8.308;2024-01-25T07:44:33;13.77;;;4.00;;
37657;SDS011;23500;53.268;8.308;2024-01-25T07:46:58;16.65;;;4.75;;
37657;SDS011;23500;53.268;8.308;2024-01-25T07:49:25;14.70;;;4.70;;
37657;SDS011;23500;53.268;8.308;2024-01-25T07:51:51;11.75;;;4.60;;
37657;SDS011;23500;53.268;8.308;2024-01-25T07:54:17;16.38;;;4.75;;
37657;SDS011;23500;53.268;8.308;2024-01-25T07:56:42;16.58;;;4.45;;
37657;SDS011;23500;53.268;8.308;2024-01-25T07:59:08;14.20;;;4.03;;
37657;SDS011;23500;53.268;8.308;2024-01-25T08:01:34;16.05;;;4.95;;
37657;SDS011;23500;53.268;8.308;2024-01-25T08:03:59;14.93;;;5.25;;
37657;SDS011;23500;53.268;8.308;2024-01-25T08:06:25;14.18;;;4.38;;
37657;SDS011;23500;53.268;8.308;2024-01-25T08:08:52;12.75;;;4.65;;
37657;SDS011;23500;53.268;8.308;2024-01-25T08:11:18;16.38;;;5.50;;
37657;SDS011;23500;53.268;8.308;2024-01-25T08:13:45;12.52;;;4.78;;
37657;SDS011;23500;53.268;8.308;2024-01-25T08:16:12;15.63;;;4.95;;
37657;SDS011;23500;53.268;8.308;2024-01-25T08:18:39;16.38;;;5.00;;
37657;SDS011;23500;53.268;8.308;2024-01-25T08:21:05;16.17;;;5.47;;
37657;SDS011;23500;53.268;8.308;2024-01-25T08:23:31;13.85;;;5.03;;
37657;SDS011;23500;53.268;8.308;2024-01-25T08:25:57;14.13;;;4.85;;
37657;SDS011;23500;53.268;8.308;2024-01-25T08:28:22;16.05;;;4.93;;
37657;SDS011;23500;53.268;8.308;2024-01-25T08:30:48;15.18;;;5.40;;
37657;SDS011;23500;53.268;8.308;2024-01-25T08:33:14;17.90;;;5.50;;
37657;SDS011;23500;53.268;8.308;2024-01-25T08:35:40;14.00;;;4.65;;
37657;SDS011;23500;53.268;8.308;2024-01-25T08:38:06;12.95;;;4.82;;
37657;SDS011;23500;53.268;8.308;2024-01-25T08:40:32;13.95;;;4.93;;
37657;SDS011;23500;53.268;8.308;2024-01-25T08:42:58;13.55;;;4.75;;
37657;SDS011;23500;53.268;8.308;2024-01-25T08:45:23;11.68;;;4.40;;
37657;SDS011;23500;53.268;8.308;2024-01-25T08:47:49;10.30;;;4.40;;
37657;SDS011;23500;53.268;8.308;2024-01-25T08:50:16;12.32;;;4.57;;
37657;SDS011;23500;53.268;8.308;2024-01-25T08:52:42;12.00;;;5.05;;
37657;SDS011;23500;53.268;8.308;2024-01-25T08:55:08;13.65;;;4.22;;
37657;SDS011;23500;53.268;8.308;2024-01-25T08:57:35;14.73;;;4.90;;
37657;SDS011;23500;53.268;8.308;2024-01-25T09:00:01;14.00;;;5.38;;
37657;SDS011;23500;53.268;8.308;2024-01-25T09:02:27;11.80;;;4.45;;
37657;SDS011;23500;53.268;8.308;2024-01-25T09:04:54;12.27;;;4.55;;
37657;SDS011;23500;53.268;8.308;2024-01-25T09:07:20;13.50;;;4.18;;
37657;SDS011;23500;53.268;8.308;2024-01-25T09:09:47;15.27;;;4.85;;
37657;SDS011;23500;53.268;8.308;2024-01-25T09:12:13;13.63;;;5.05;;
37657;SDS011;23500;53.268;8.308;2024-01-25T09:14:39;11.88;;;4.38;;
37657;SDS011;23500;53.268;8.308;2024-01-25T09:17:05;13.18;;;4.93;;
37657;SDS011;23500;53.268;8.308;2024-01-25T09:19:30;14.15;;;4.75;;
37657;SDS011;23500;53.268;8.308;2024-01-25T09:21:56;11.90;;;4.97;;
37657;SDS011;23500;53.268;8.308;2024-01-25T09:24:26;12.88;;;4.55;;
37657;SDS011;23500;53.268;8.308;2024-01-25T09:26:52;13.35;;;4.60;;
37657;SDS011;23500;53.268;8.308;2024-01-25T09:29:17;11.70;;;4.72;;
37657;SDS011;23500;53.268;8.308;2024-01-25T09:31:43;11.32;;;4.55;;
37657;SDS011;23500;53.268;8.308;2024-01-25T09:34:09;13.40;;;4.90;;
37657;SDS011;23500;53.268;8.308;2024-01-25T09:36:34;13.63;;;4.78;;
37657;SDS011;23500;53.268;8.308;2024-01-25T09:39:00;11.52;;;4.53;;
37657;SDS011;23500;53.268;8.308;2024-01-25T09:41:26;12.73;;;4.88;;
37657;SDS011;23500;53.268;8.308;2024-01-25T09:43:52;15.25;;;4.45;;
37657;SDS011;23500;53.268;8.308;2024-01-25T09:46:18;12.23;;;4.85;;
37657;SDS011;23500;53.268;8.308;2024-01-25T09:48:44;10.50;;;4.30;;
37657;SDS011;23500;53.268;8.308;2024-01-25T09:51:11;12.82;;;4.78;;
37657;SDS011;23500;53.268;8.308;2024-01-25T09:53:38;13.10;;;4.72;;
37657;SDS011;23500;53.268;8.308;2024-01-25T09:56:07;11.77;;;4.25;;
37657;SDS011;23500;53.268;8.308;2024-01-25T09:58:38;10.57;;;4.32;;
37657;SDS011;23500;53.268;8.308;2024-01-25T10:01:06;9.75;;;4.28;;
37657;SDS011;23500;53.268;8.308;2024-01-25T10:03:36;10.52;;;3.65;;
37657;SDS011;23500;53.268;8.308;2024-01-25T10:06:02;8.35;;;3.90;;
37657;SDS011;23500;53.268;8.308;2024-01-25T10:08:29;9.82;;;4.10;;
37657;SDS011;23500;53.268;8.308;2024-01-25T10:10:55;11.13;;;4.07;;
37657;SDS011;23500;53.268;8.308;2024-01-25T10:13:20;10.70;;;4.30;;
37657;SDS011;23500;53.268;8.308;2024-01-25T10:15:47;10.15;;;4.65;;
37657;SDS011;23500;53.268;8.308;2024-01-25T10:18:16;12.45;;;4.32;;
37657;SDS011;23500;53.268;8.308;2024-01-25T10:20:42;9.10;;;3.83;;
37657;SDS011;23500;53.268;8.308;2024-01-25T10:23:08;10.23;;;4.38;;
37657;SDS011;23500;53.268;8.308;2024-01-25T10:25:37;8.60;;;3.65;;
37657;SDS011;23500;53.268;8.308;2024-01-25T10:28:03;9.57;;;3.92;;
37657;SDS011;23500;53.268;8.308;2024-01-25T10:30:34;8.77;;;3.92;;
37657;SDS011;23500;53.268;8.308;2024-01-25T10:33:01;8.73;;;3.75;;
37657;SDS011;23500;53.268;8.308;2024-01-25T10:35:29;10.40;;;4.20;;
37657;SDS011;23500;53.268;8.308;2024-01-25T10:37:56;10.93;;;3.85;;
37657;SDS011;23500;53.268;8.308;2024-01-25T10:40:22;8.85;;;4.05;;
37657;SDS011;23500;53.268;8.308;2024-01-25T10:42:49;9.07;;;3.67;;
37657;SDS011;23500;53.268;8.308;2024-01-25T10:45:15;9.27;;;4.13;;
37657;SDS011;23500;53.268;8.308;2024-01-25T10:47:41;10.63;;;4.00;;
37657;SDS011;23500;53.268;8.308;2024-01-25T10:50:07;8.45;;;3.95;;
37657;SDS011;23500;53.268;8.308;2024-01-25T10:52:34;8.98;;;3.70;;
37657;SDS011;23500;53.268;8.308;2024-01-25T10:55:02;10.70;;;3.83;;
37657;SDS011;23500;53.268;8.308;2024-01-25T10:57:42;10.07;;;3.90;;
37657;SDS011;23500;53.268;8.308;2024-01-25T11:00:12;10.70;;;3.67;;
37657;SDS011;23500;53.268;8.308;2024-01-25T11:02:40;9.60;;;4.15;;
37657;SDS011;23500;53.268;8.308;2024-01-25T11:05:15;9.43;;;3.83;;
37657;SDS011;23500;53.268;8.308;2024-01-25T11:07:49;10.15;;;3.92;;
37657;SDS011;23500;53.268;8.308;2024-01-25T11:12:48;9.30;;;4.22;;
37657;SDS011;23500;53.268;8.308;2024-01-25T11:15:29;8.60;;;3.60;;
37657;SDS011;23500;53.268;8.308;2024-01-25T11:18:02;7.97;;;3.67;;
37657;SDS011;23500;53.268;8.308;2024-01-25T11:20:31;8.65;;;3.85;;
37657;SDS011;23500;53.268;8.308;2024-01-25T11:22:59;9.55;;;3.55;;
37657;SDS011;23500;53.268;8.308;2024-01-25T11:25:31;8.75;;;3.83;;
37657;SDS011;23500;53.268;8.308;2024-01-25T11:27:58;6.70;;;3.22;;
37657;SDS011;23500;53.268;8.308;2024-01-25T11:30:25;8.65;;;3.38;;
37657;SDS011;23500;53.268;8.308;2024-01-25T11:32:52;11.38;;;4.22;;
37657;SDS011;23500;53.268;8.308;2024-01-25T11:35:17;7.95;;;3.45;;
37657;SDS011;23500;53.268;8.308;2024-01-25T11:37:46;9.57;;;3.70;;
37657;SDS011;23500;53.268;8.308;2024-01-25T11:40:13;9.13;;;3.92;;
37657;SDS011;23500;53.268;8.308;2024-01-25T11:42:40;8.20;;;3.30;;
37657;SDS011;23500;53.268;8.308;2024-01-25T11:45:08;9.32;;;3.50;;
37657;SDS011;23500;53.268;8.308;2024-01-25T11:47:36;8.70;;;3.53;;
37657;SDS011;23500;53.268;8.308;2024-01-25T11:50:03;8.93;;;3.65;;
37657;SDS011;23500;53.268;8.308;2024-01-25T11:52:30;10.90;;;3.60;;
37657;SDS011;23500;53.268;8.308;2024-01-25T11:54:59;9.27;;;3.67;;
37657;SDS011;23500;53.268;8.308;2024-01-25T11:57:32;10.57;;;3.40;;
37657;SDS011;23500;53.268;8.308;2024-01-25T12:00:02;6.80;;;3.40;;
37657;SDS011;23500;53.268;8.308;2024-01-25T12:02:29;9.40;;;3.65;;
37657;SDS011;23500;53.268;8.308;2024-01-25T12:04:56;8.45;;;3.80;;
37657;SDS011;23500;53.268;8.308;2024-01-25T12:07:22;7.22;;;3.67;;
37657;SDS011;23500;53.268;8.308;2024-01-25T12:09:58;8.20;;;3.47;;
37657;SDS011;23500;53.268;8.308;2024-01-25T12:12:30;7.88;;;3.50;;
37657;SDS011;23500;53.268;8.308;2024-01-25T12:14:57;7.95;;;3.05;;
37657;SDS011;23500;53.268;8.308;2024-01-25T12:17:23;8.80;;;3.70;;
37657;SDS011;23500;53.268;8.308;2024-01-25T12:19:55;8.63;;;3.65;;
37657;SDS011;23500;53.268;8.308;2024-01-25T12:22:24;7.80;;;3.40;;
37657;SDS011;23500;53.268;8.308;2024-01-25T12:24:58;7.57;;;3.38;;
37657;SDS011;23500;53.268;8.308;2024-01-25T12:27:24;8.32;;;3.28;;
37657;SDS011;23500;53.268;8.308;2024-01-25T12:29:51;6.95;;;3.13;;
37657;SDS011;23500;53.268;8.308;2024-01-25T12:32:20;8.77;;;3.63;;
37657;SDS011;23500;53.268;8.308;2024-01-25T12:34:53;7.05;;;3.17;;
37657;SDS011;23500;53.268;8.308;2024-01-25T12:37:22;8.55;;;3.20;;
37657;SDS011;23500;53.268;8.308;2024-01-25T12:39:48;8.52;;;3.35;;
37657;SDS011;23500;53.268;8.308;2024-01-25T12:42:17;8.70;;;3.25;;
37657;SDS011;23500;53.268;8.308;2024-01-25T12:44:46;7.60;;;3.40;;
37657;SDS011;23500;53.268;8.308;2024-01-25T12:47:12;7.18;;;3.38;;
37657;SDS011;23500;53.268;8.308;2024-01-25T12:49:42;7.43;;;3.15;;
37657;SDS011;23500;53.268;8.308;2024-01-25T12:52:09;6.40;;;3.40;;
37657;SDS011;23500;53.268;8.308;2024-01-25T12:54:36;9.95;;;3.10;;
37657;SDS011;23500;53.268;8.308;2024-01-25T12:57:02;9.57;;;3.35;;
37657;SDS011;23500;53.268;8.308;2024-01-25T12:59:28;7.78;;;3.40;;
37657;SDS011;23500;53.268;8.308;2024-01-25T13:01:54;7.05;;;3.03;;
37657;SDS011;23500;53.268;8.308;2024-01-25T13:04:20;7.38;;;3.58;;
37657;SDS011;23500;53.268;8.308;2024-01-25T13:06:47;5.45;;;2.60;;
37657;SDS011;23500;53.268;8.308;2024-01-25T13:09:13;6.30;;;2.75;;
37657;SDS011;23500;53.268;8.308;2024-01-25T13:11:40;6.18;;;3.00;;
37657;SDS011;23500;53.268;8.308;2024-01-25T13:14:06;7.65;;;2.80;;
37657;SDS011;23500;53.268;8.308;2024-01-25T13:16:32;5.70;;;2.97;;
37657;SDS011;23500;53.268;8.308;2024-01-25T13:18:58;6.60;;;3.20;;
37657;SDS011;23500;53.268;8.308;2024-01-25T13:21:24;5.32;;;3.08;;
37657;SDS011;23500;53.268;8.308;2024-01-25T13:23:49;6.68;;;2.92;;
37657;SDS011;23500;53.268;8.308;2024-01-25T13:26:15;6.80;;;2.95;;
37657;SDS011;23500;53.268;8.308;2024-01-25T13:28:41;6.65;;;3.03;;
37657;SDS011;23500;53.268;8.308;2024-01-25T13:31:07;6.32;;;3.45;;
37657;SDS011;23500;53.268;8.308;2024-01-25T13:33:32;6.28;;;2.90;;
37657;SDS011;23500;53.268;8.308;2024-01-25T13:35:58;6.18;;;2.85;;
37657;SDS011;23500;53.268;8.308;2024-01-25T13:38:24;5.82;;;2.97;;
37657;SDS011;23500;53.268;8.308;2024-01-25T13:40:50;6.40;;;3.10;;
37657;SDS011;23500;53.268;8.308;2024-01-25T13:43:16;7.88;;;3.22;;
37657;SDS011;23500;53.268;8.308;2024-01-25T13:45:42;4.57;;;2.70;;
37657;SDS011;23500;53.268;8.308;2024-01-25T13:48:07;6.47;;;2.83;;
37657;SDS011;23500;53.268;8.308;2024-01-25T13:50:33;8.45;;;3.10;;
37657;SDS011;23500;53.268;8.308;2024-01-25T13:52:59;6.38;;;3.15;;
37657;SDS011;23500;53.268;8.308;2024-01-25T13:55:24;7.32;;;3.03;;
37657;SDS011;23500;53.268;8.308;2024-01-25T13:57:50;5.50;;;2.72;;
37657;SDS011;23500;53.268;8.308;2024-01-25T14:00:16;5.47;;;2.85;;
37657;SDS011;23500;53.268;8.308;2024-01-25T14:02:42;7.40;;;3.13;;
37657;SDS011;23500;53.268;8.308;2024-01-25T14:05:10;6.68;;;2.92;;
37657;SDS011;23500;53.268;8.308;2024-01-25T14:07:36;8.18;;;3.20;;
37657;SDS011;23500;53.268;8.308;2024-01-25T14:10:02;5.15;;;2.45;;
37657;SDS011;23500;53.268;8.308;2024-01-25T14:12:28;7.22;;;2.65;;
37657;SDS011;23500;53.268;8.308;2024-01-25T14:14:54;4.95;;;2.67;;
37657;SDS011;23500;53.268;8.308;2024-01-25T14:17:19;5.78;;;2.60;;
37657;SDS011;23500;53.268;8.308;2024-01-25T14:19:46;7.47;;;2.75;;
37657;SDS011;23500;53.268;8.308;2024-01-25T14:22:12;4.75;;;2.58;;
37657;SDS011;23500;53.268;8.308;2024-01-25T14:24:38;6.10;;;2.50;;
37657;SDS011;23500;53.268;8.308;2024-01-25T14:27:04;6.00;;;2.60;;
37657;SDS011;23500;53.268;8.308;2024-01-25T14:29:29;5.03;;;2.50;;
37657;SDS011;23500;53.268;8.308;2024-01-25T14:31:57;5.32;;;2.78;;
37657;SDS011;23500;53.268;8.308;2024-01-25T14:34:23;5.18;;;2.58;;
37657;SDS011;23500;53.268;8.308;2024-01-25T14:36:49;5.43;;;2.50;;
37657;SDS011;23500;53.268;8.308;2024-01-25T14:39:17;5.65;;;2.63;;
37657;SDS011;23500;53.268;8.308;2024-01-25T14:41:43;5.80;;;2.80;;
37657;SDS011;23500;53.268;8.308;2024-01-25T14:44:09;5.07;;;2.45;;
37657;SDS011;23500;53.268;8.308;2024-01-25T14:46:35;5.65;;;2.33;;